KELD/ELD METAR and TAF weather

Enter ICAO airport designator
Station Type Date Time Source
KELD METAR 2020/01/28 11:53 UTC NOAA

KELD 281153Z AUTO 00000KT 1/4SM FG VV002 05/05 A3002 RMK AO2 SLP166 I6000 T00500050 10056 20022 50007 $


Station Type Date Time Source
KELD Decoded METAR 2020/01/28 11:53 UTC NOAA

SOUTH ARKANSAS REGIONAL, AR, United States (KELD) 33-13N 092-49W 81M
Jan 28, 2020 - 06:53 AM EST / 2020.01.28 1153 UTC
Wind: Calm:0
Visibility: 1/4 mile(s):0
Sky conditions: obscured
Weather: fog
Temperature: 41.0 F (5.0 C)
Dew Point: 41.0 F (5.0 C)
Relative Humidity: 100%
Pressure (altimeter): 30.02 in. Hg (1016 hPa)
Pressure tendency: 0.02 inches (0.7 hPa) higher than three hours ago
ob: KELD 281153Z AUTO 00000KT 1/4SM FG VV002 05/05 A3002 RMK AO2 SLP166 I6000 T00500050 10056 20022 50007
cycle: 12

Station Type Date Time Source
KELD TAF 2020/01/28 12:24 UTC NOAA

TAF KELD 281121Z 2812/2912 00000KT 3SM BR OVC001
TEMPO 2812/2814 1SM BR OVC001
FM281400 12003KT P6SM VCSH OVC007
TEMPO 2816/2820 4SM -SHRA BR
FM282200 10007KT 5SM -SHRA BR OVC015
FM290100 08009KT 4SM -SHRA BR OVC010
FM290900 07006KT 4SM -SHRA BR OVC007

Example: see airport list